RYR612 LFBL-EGSS
Flight info
| Callsign | RYR612 |
|---|---|
| Flight time | 1h 5m |
| Altitude | 32000 |
| Route | BALAN DCT BOKNO UN858 VANAD UN874 BAMES UT191 KORIQ DCT KESAX DCT KUNAV Y8 BANVA |
| Aircraft | B38M/M-SDE1FGHILORVWXY/HB1 |
Departure
| Time | 2026-05-04 15:50 |
|---|---|
| Airport | Limoges Airport (LFBL) |
Arrival
| Time | 2026-05-04 16:56 |
|---|---|
| Airport | London Stansted Airport (EGSS) |
| Time | Latitude | Longitude | Altitude | Speed | Heading |
|---|---|---|---|---|---|
| 2026-05-04 15:21 | 45.86147 | 1.17727 | 1317 ft | 0 kts | 67° |
| 2026-05-04 15:46 | 45.86148 | 1.17733 | 1317 ft | 2 kts | 74° |
| 2026-05-04 15:47 | 45.86144 | 1.17802 | 1317 ft | 11 kts | 90° |
| 2026-05-04 15:47 | 45.86130 | 1.17913 | 1316 ft | 13 kts | 119° |
| 2026-05-04 15:47 | 45.86096 | 1.18035 | 1314 ft | 12 kts | 71° |
| 2026-05-04 15:47 | 45.86162 | 1.18109 | 1314 ft | 16 kts | 33° |
| 2026-05-04 15:48 | 45.86297 | 1.18236 | 1313 ft | 30 kts | 33° |
| 2026-05-04 15:48 | 45.86510 | 1.18436 | 1314 ft | 42 kts | 33° |
| 2026-05-04 15:48 | 45.86964 | 1.18861 | 1312 ft | 27 kts | 33° |
| 2026-05-04 15:49 | 45.87071 | 1.19006 | 1312 ft | 12 kts | 63° |
| 2026-05-04 15:49 | 45.87105 | 1.19033 | 1312 ft | 6 kts | 329° |
| 2026-05-04 15:49 | 45.87107 | 1.18997 | 1312 ft | 1 kts | 226° |
| 2026-05-04 15:49 | 45.87093 | 1.18985 | 1312 ft | 7 kts | 212° |
| 2026-05-04 15:50 | 45.86889 | 1.18793 | 1312 ft | 73 kts | 213° |
| 2026-05-04 15:50 | 45.86255 | 1.18200 | 1313 ft | 142 kts | 213° |
| 2026-05-04 15:50 | 45.85317 | 1.17336 | 1690 ft | 166 kts | 213° |
| 2026-05-04 15:50 | 45.84340 | 1.16391 | 2543 ft | 174 kts | 218° |
| 2026-05-04 15:51 | 45.83625 | 1.14912 | 3234 ft | 201 kts | 251° |
| 2026-05-04 15:51 | 45.83702 | 1.12828 | 3928 ft | 224 kts | 291° |
| 2026-05-04 15:51 | 45.84696 | 1.11091 | 4924 ft | 235 kts | 325° |
| 2026-05-04 15:51 | 45.86284 | 1.10236 | 5747 ft | 252 kts | 347° |
| 2026-05-04 15:52 | 45.88039 | 1.09746 | 6677 ft | 264 kts | 346° |
| 2026-05-04 15:52 | 45.89891 | 1.09111 | 7378 ft | 282 kts | 343° |
| 2026-05-04 15:52 | 45.91814 | 1.08340 | 8261 ft | 289 kts | 342° |
| 2026-05-04 15:52 | 45.93750 | 1.07504 | 9237 ft | 294 kts | 341° |
| 2026-05-04 15:53 | 45.95717 | 1.06615 | 10118 ft | 299 kts | 340° |
| 2026-05-04 15:53 | 45.97751 | 1.05673 | 10644 ft | 316 kts | 340° |
| 2026-05-04 15:53 | 45.99901 | 1.04661 | 11126 ft | 332 kts | 340° |
| 2026-05-04 15:53 | 46.02126 | 1.03609 | 11757 ft | 339 kts | 340° |
| 2026-05-04 15:54 | 46.04437 | 1.02845 | 12481 ft | 346 kts | 356° |
| 2026-05-04 15:54 | 46.06859 | 1.02861 | 13209 ft | 350 kts | 359° |
| 2026-05-04 15:54 | 46.09311 | 1.02876 | 13849 ft | 355 kts | 359° |
| 2026-05-04 15:54 | 46.11793 | 1.02897 | 14445 ft | 358 kts | 359° |
| 2026-05-04 15:55 | 46.14285 | 1.02922 | 15031 ft | 362 kts | 359° |
| 2026-05-04 15:55 | 46.16785 | 1.02948 | 15574 ft | 366 kts | 359° |
| 2026-05-04 15:55 | 46.19338 | 1.02975 | 16166 ft | 368 kts | 359° |
| 2026-05-04 15:55 | 46.21946 | 1.03003 | 16703 ft | 372 kts | 359° |
| 2026-05-04 15:56 | 46.24511 | 1.03031 | 17226 ft | 375 kts | 359° |
| 2026-05-04 15:56 | 46.27135 | 1.03060 | 17748 ft | 379 kts | 359° |
| 2026-05-04 15:56 | 46.29778 | 1.03089 | 18228 ft | 382 kts | 359° |
| 2026-05-04 15:56 | 46.32481 | 1.03119 | 18644 ft | 385 kts | 359° |
| 2026-05-04 15:57 | 46.35133 | 1.03149 | 19046 ft | 387 kts | 359° |
| 2026-05-04 15:57 | 46.37835 | 1.03179 | 19438 ft | 390 kts | 359° |
| 2026-05-04 15:57 | 46.40537 | 1.03209 | 19864 ft | 391 kts | 359° |
| 2026-05-04 15:57 | 46.43265 | 1.03239 | 20215 ft | 394 kts | 359° |
| 2026-05-04 15:58 | 46.46012 | 1.03270 | 20569 ft | 396 kts | 359° |
| 2026-05-04 15:58 | 46.48772 | 1.03301 | 20914 ft | 399 kts | 359° |
| 2026-05-04 15:58 | 46.51533 | 1.02988 | 21218 ft | 398 kts | 343° |
| 2026-05-04 15:58 | 46.54116 | 1.01607 | 21552 ft | 397 kts | 334° |
| 2026-05-04 15:59 | 46.56679 | 1.00037 | 21796 ft | 401 kts | 334° |
| 2026-05-04 15:59 | 46.59237 | 0.98443 | 22171 ft | 401 kts | 334° |
| 2026-05-04 15:59 | 46.61802 | 0.96821 | 22458 ft | 403 kts | 334° |
| 2026-05-04 15:59 | 46.64364 | 0.95189 | 22751 ft | 405 kts | 333° |
| 2026-05-04 16:00 | 46.66950 | 0.93535 | 23040 ft | 407 kts | 333° |
| 2026-05-04 16:00 | 46.69545 | 0.91872 | 23311 ft | 408 kts | 333° |
| 2026-05-04 16:00 | 46.72152 | 0.90199 | 23551 ft | 410 kts | 333° |
| 2026-05-04 16:00 | 46.74772 | 0.88516 | 23764 ft | 412 kts | 333° |
| 2026-05-04 16:01 | 46.77400 | 0.86826 | 23968 ft | 414 kts | 333° |
| 2026-05-04 16:01 | 46.80038 | 0.85128 | 24167 ft | 415 kts | 333° |
| 2026-05-04 16:01 | 46.82686 | 0.83421 | 24372 ft | 417 kts | 333° |
| 2026-05-04 16:01 | 46.85342 | 0.81708 | 24558 ft | 418 kts | 333° |
| 2026-05-04 16:02 | 46.87993 | 0.79997 | 24749 ft | 420 kts | 333° |
| 2026-05-04 16:02 | 46.90675 | 0.78265 | 24889 ft | 422 kts | 333° |
| 2026-05-04 16:02 | 46.96064 | 0.74772 | 25240 ft | 425 kts | 333° |
| 2026-05-04 16:03 | 46.98765 | 0.73019 | 25413 ft | 426 kts | 333° |
| 2026-05-04 16:03 | 47.01476 | 0.71259 | 25587 ft | 426 kts | 333° |
| 2026-05-04 16:03 | 47.04278 | 0.69819 | 25726 ft | 431 kts | 348° |
| 2026-05-04 16:03 | 47.07272 | 0.69565 | 25935 ft | 433 kts | 2° |
| 2026-05-04 16:04 | 47.10275 | 0.69820 | 26089 ft | 436 kts | 2° |
| 2026-05-04 16:04 | 47.16344 | 0.70386 | 26456 ft | 438 kts | 3° |
| 2026-05-04 16:04 | 47.19388 | 0.70697 | 26661 ft | 439 kts | 3° |
| 2026-05-04 16:05 | 47.22441 | 0.71014 | 26911 ft | 439 kts | 3° |
| 2026-05-04 16:05 | 47.25494 | 0.71333 | 27082 ft | 441 kts | 3° |
| 2026-05-04 16:05 | 47.31633 | 0.71976 | 27429 ft | 444 kts | 3° |
| 2026-05-04 16:06 | 47.34700 | 0.72297 | 27584 ft | 445 kts | 3° |
| 2026-05-04 16:06 | 47.42943 | 0.73164 | 28049 ft | 447 kts | 3° |
| 2026-05-04 16:07 | 47.47098 | 0.73601 | 28226 ft | 448 kts | 3° |
| 2026-05-04 16:07 | 47.56148 | 0.77117 | 28585 ft | 453 kts | 18° |
| 2026-05-04 16:08 | 47.59125 | 0.78565 | 28751 ft | 453 kts | 18° |
| 2026-05-04 16:08 | 47.68125 | 0.82996 | 29181 ft | 456 kts | 18° |
| 2026-05-04 16:09 | 47.74123 | 0.85961 | 29391 ft | 459 kts | 18° |
| 2026-05-04 16:09 | 47.80195 | 0.88970 | 29669 ft | 461 kts | 18° |
| 2026-05-04 16:10 | 47.85233 | 0.91491 | 30002 ft | 460 kts | 19° |
| 2026-05-04 16:11 | 47.94371 | 0.96105 | 30394 ft | 464 kts | 19° |
| 2026-05-04 16:11 | 47.97433 | 0.97654 | 30542 ft | 465 kts | 19° |
| 2026-05-04 16:12 | 48.06580 | 1.02294 | 31215 ft | 461 kts | 19° |
| 2026-05-04 16:12 | 48.15689 | 1.06932 | 31884 ft | 461 kts | 19° |
| 2026-05-04 16:13 | 48.27798 | 1.13104 | 31934 ft | 458 kts | 19° |
| 2026-05-04 16:14 | 48.39838 | 1.19259 | 31942 ft | 457 kts | 19° |
| 2026-05-04 16:16 | 48.54893 | 1.26989 | 31940 ft | 458 kts | 18° |
| 2026-05-04 16:17 | 48.69982 | 1.34592 | 31944 ft | 456 kts | 18° |
| 2026-05-04 16:18 | 48.81971 | 1.40674 | 31948 ft | 456 kts | 18° |
| 2026-05-04 16:19 | 48.97012 | 1.48329 | 31947 ft | 456 kts | 16° |
| 2026-05-04 16:20 | 49.12633 | 1.52135 | 31928 ft | 454 kts | 8° |
| 2026-05-04 16:22 | 49.28242 | 1.55741 | 31951 ft | 454 kts | 7° |
| 2026-05-04 16:23 | 49.46988 | 1.59835 | 31953 ft | 453 kts | 7° |
| 2026-05-04 16:25 | 49.65685 | 1.63956 | 31950 ft | 452 kts | 8° |
| 2026-05-04 16:26 | 49.78073 | 1.64422 | 31944 ft | 446 kts | 336° |
| 2026-05-04 16:26 | 49.86311 | 1.57826 | 31967 ft | 446 kts | 331° |
| 2026-05-04 16:28 | 50.00162 | 1.47057 | 31946 ft | 446 kts | 331° |
| 2026-05-04 16:29 | 50.19552 | 1.31875 | 31958 ft | 445 kts | 330° |
| 2026-05-04 16:31 | 50.33351 | 1.20985 | 31965 ft | 444 kts | 330° |
| 2026-05-04 16:32 | 50.49364 | 1.06830 | 31956 ft | 426 kts | 306° |
| 2026-05-04 16:33 | 50.51812 | 0.98959 | 31607 ft | 391 kts | 279° |
| 2026-05-04 16:33 | 50.52916 | 0.90710 | 30654 ft | 387 kts | 276° |
| 2026-05-04 16:34 | 50.53801 | 0.82399 | 29699 ft | 383 kts | 275° |
| 2026-05-04 16:34 | 50.54313 | 0.78310 | 29189 ft | 384 kts | 285° |
| 2026-05-04 16:35 | 50.59465 | 0.68814 | 28058 ft | 382 kts | 316° |
| 2026-05-04 16:35 | 50.65446 | 0.60723 | 26871 ft | 374 kts | 316° |
| 2026-05-04 16:36 | 50.67414 | 0.58081 | 26501 ft | 371 kts | 316° |
| 2026-05-04 16:36 | 50.71315 | 0.52843 | 25760 ft | 366 kts | 317° |
| 2026-05-04 16:37 | 50.75153 | 0.47679 | 25037 ft | 361 kts | 317° |
| 2026-05-04 16:37 | 50.77058 | 0.45110 | 24687 ft | 359 kts | 316° |
| 2026-05-04 16:37 | 50.80846 | 0.39997 | 23896 ft | 358 kts | 316° |
| 2026-05-04 16:38 | 50.84609 | 0.34905 | 23161 ft | 354 kts | 316° |
| 2026-05-04 16:39 | 50.90140 | 0.27400 | 22101 ft | 344 kts | 316° |
| 2026-05-04 16:39 | 50.93735 | 0.22510 | 21411 ft | 338 kts | 316° |
| 2026-05-04 16:40 | 50.97271 | 0.17690 | 20765 ft | 333 kts | 316° |
| 2026-05-04 16:40 | 51.00750 | 0.12938 | 20112 ft | 327 kts | 317° |
| 2026-05-04 16:41 | 51.04467 | 0.08685 | 19438 ft | 333 kts | 323° |
| 2026-05-04 16:41 | 51.10207 | 0.02384 | 18428 ft | 333 kts | 323° |
| 2026-05-04 16:42 | 51.15853 | -0.03898 | 17332 ft | 328 kts | 323° |
| 2026-05-04 16:43 | 51.19557 | -0.08035 | 16638 ft | 323 kts | 323° |
| 2026-05-04 16:43 | 51.23209 | -0.12121 | 15972 ft | 318 kts | 323° |
| 2026-05-04 16:43 | 51.25017 | -0.14147 | 15636 ft | 316 kts | 323° |
| 2026-05-04 16:44 | 51.32104 | -0.22107 | 14342 ft | 310 kts | 323° |
| 2026-05-04 16:45 | 51.35608 | -0.26054 | 13713 ft | 306 kts | 324° |
| 2026-05-04 16:46 | 51.40769 | -0.31878 | 12731 ft | 299 kts | 324° |
| 2026-05-04 16:46 | 51.44682 | -0.33496 | 11989 ft | 300 kts | 10° |
| 2026-05-04 16:47 | 51.48514 | -0.30968 | 11451 ft | 299 kts | 25° |
| 2026-05-04 16:47 | 51.52465 | -0.29592 | 10955 ft | 288 kts | 4° |
| 2026-05-04 16:48 | 51.57549 | -0.24364 | 9649 ft | 297 kts | 44° |
| 2026-05-04 16:48 | 51.58997 | -0.22080 | 9224 ft | 294 kts | 44° |
| 2026-05-04 16:49 | 51.61920 | -0.17488 | 8142 ft | 291 kts | 44° |
| 2026-05-04 16:49 | 51.64790 | -0.12982 | 7089 ft | 287 kts | 44° |
| 2026-05-04 16:50 | 51.67603 | -0.08559 | 6131 ft | 280 kts | 44° |
| 2026-05-04 16:50 | 51.70347 | -0.04236 | 5204 ft | 271 kts | 44° |
| 2026-05-04 16:51 | 51.73005 | -0.00006 | 4292 ft | 263 kts | 46° |
| 2026-05-04 16:51 | 51.74255 | 0.02092 | 3977 ft | 256 kts | 44° |
| 2026-05-04 16:51 | 51.76744 | 0.05868 | 3386 ft | 237 kts | 42° |
| 2026-05-04 16:52 | 51.79029 | 0.09281 | 2821 ft | 201 kts | 42° |
| 2026-05-04 16:52 | 51.79998 | 0.10731 | 2549 ft | 179 kts | 42° |
| 2026-05-04 16:53 | 51.81609 | 0.13145 | 2127 ft | 140 kts | 40° |
| 2026-05-04 16:53 | 51.83707 | 0.16292 | 1536 ft | 137 kts | 41° |
| 2026-05-04 16:54 | 51.84402 | 0.17349 | 1352 ft | 136 kts | 40° |
| 2026-05-04 16:55 | 51.87221 | 0.21556 | 545 ft | 138 kts | 43° |
| 2026-05-04 16:55 | 51.88471 | 0.23434 | 359 ft | 81 kts | 43° |
| 2026-05-04 16:56 | 51.88884 | 0.24251 | 351 ft | 33 kts | 72° |
| 2026-05-04 16:56 | 51.89064 | 0.24811 | 357 ft | 25 kts | 43° |
| 2026-05-04 16:57 | 51.89186 | 0.24993 | 348 ft | 20 kts | 44° |
| 2026-05-04 16:57 | 51.89379 | 0.25350 | 356 ft | 21 kts | 44° |
| 2026-05-04 16:58 | 51.89470 | 0.25717 | 356 ft | 16 kts | 43° |
| 2026-05-04 16:58 | 51.89531 | 0.25838 | 357 ft | 11 kts | 87° |
| 2026-05-04 16:59 | 51.89454 | 0.25952 | 356 ft | 6 kts | 208° |
| 2026-05-04 17:00 | 51.89418 | 0.25897 | 355 ft | 0 kts | 223° |